New Salem, PA (15468)

2:48 AM EDT on September 02, 2014 (GMT -0400)
HillTop Rices Landing | Change Station
CLOSE
Current Station
Personal Weather Station
Location: Rices Landing, PA
Elevation: 1118 ft
Nearby Weather Stations

Elev 1118 ft 39.93 °N, 79.95 °W | Updated 20 minutes ago

Overcast
Overcast
70.8 °F
Feels Like 70.8 °F
N
3.0
Wind Variable Wind from SSE
Gusts 5.0 mph

Today
High -- | Low -- °F
--% Chance of Precip.
Yesterday
High -- | Low -- °F
Precip. -- in
6:48 AM 7:49 PM
Waxing Crescent, 48% visible
Pressure 29.99 in
Visibility 10.0 miles
Clouds Overcast 11000 ft
Dew Point 68 °F
Humidity 91%
Rainfall 0.00 in
Snow Depth Not available.
UV 0 out of 12
Pollen 9.20 out of 12
Air Quality Not available.
Flu Activity Not available.
METAR KMGW 020553Z AUTO 00000KT 10SM OVC110 22/19 A3002 RMK AO2 RAB19E34 SLP156 P0006 60006 T02220194 10261 20222 58002 TSNO

More Conditions Fewer Conditions

Pressure 29.99 in
Visibility 10.0 miles
Clouds Overcast 11000 ft
Dew Point 68 °F
Humidity 91%
Rainfall 0.00 in
Snow Depth Not available.
UV 0 out of 12
Pollen 9.20 out of 12
Air Quality Not available.
Flu Activity Not available.
METAR KMGW 020553Z AUTO 00000KT 10SM OVC110 22/19 A3002 RMK AO2 RAB19E34 SLP156 P0006 60006 T02220194 10261 20222 58002 TSNO

More Conditions Fewer Conditions

10-Day Weather Forecast

Almanac

Astronomy

Sep. 02, 2014 Rise Set
Actual Time 6:48 AM EDT 7:49 PM EDT
Civil Twilight 6:20 AM EDT 8:16 PM EDT
Nautical Twilight 5:47 AM EDT 8:49 PM EDT
Astronomical Twilight 5:12 AM EDT 9:23 PM EDT
Moon 2:30 PM EDT No Moon Set
Length of Visible Light 13h 56m
Length of Day
13h 01m
Tomorrow will be 2m 32s shorter.
Waxing Crescent, 48% of the Moon is Illuminated
Today
Waxing Crescent
Sep 2
First Quarter
Sep 8
Full
Sep 15
Last Quarter
Sep 24
New

Today's Extremes

State Highs State Lows

Community

WunderPhotos

Upload Photos

1,749,589 photos uploaded!

WunderBlogs® & News

Nearby

Snow Depth

Station Depth Elevation
No new snow has been reported.

Earthquake Activity

City Distance Mag. Time & Date
No recent earthquake activity has been reported nearby.
Minimum magnitude displayed is 2.5.

Coastal Water Temperatures

Place Temperature
No Stations Reporting

Nearby Weather Stations